FMMI/TNR METAR and TAF weather

Enter ICAO airport designator
Station Type Date Time Source
FMMI METAR 2020/01/21 21:30 UTC NOAA

FMMI 212130Z 14004KT 9999 FEW008 BKN020 18/18 Q1013 NOSIG


Station Type Date Time Source
FMMI Decoded METAR 2020/01/21 21:30 UTC NOAA

Antananarivo / Ivato, Madagascar (FMMI) 18-48S 047-29E 1276M
Jan 21, 2020 - 04:30 PM EST / 2020.01.21 2130 UTC
Wind: from the SE (140 degrees) at 5 MPH (4 KT):0
Visibility: greater than 7 mile(s):0
Sky conditions: mostly cloudy
Temperature: 64 F (18 C)
Dew Point: 64 F (18 C)
Relative Humidity: 100%
Pressure (altimeter): 29.91 in. Hg (1013 hPa)
ob: FMMI 212130Z 14004KT 9999 FEW008 BKN020 18/18 Q1013 NOSIG
cycle: 21

Station Type Date Time Source
FMMI TAF 2020/01/21 18:09 UTC NOAA

FMMI 211700Z 2118/2224 10008KT 8000 FEW007 FEW017CB BKN017
TEMPO 2118/2224 3500 RA

Example: see airport list